sensor_id;sensor_type;location;lat;lon;timestamp;temperature;humidity
4795;DHT22;2411;47.060;15.064;2023-08-06T00:01:39;14.50;99.90
4795;DHT22;2411;47.060;15.064;2023-08-06T00:04:07;14.50;99.90
4795;DHT22;2411;47.060;15.064;2023-08-06T00:06:34;14.40;99.90
4795;DHT22;2411;47.060;15.064;2023-08-06T00:09:02;14.40;99.90
4795;DHT22;2411;47.060;15.064;2023-08-06T00:11:29;14.40;99.90
4795;DHT22;2411;47.060;15.064;2023-08-06T00:13:57;14.30;99.90
4795;DHT22;2411;47.060;15.064;2023-08-06T00:16:24;14.30;99.90
4795;DHT22;2411;47.060;15.064;2023-08-06T00:18:51;14.40;99.90
4795;DHT22;2411;47.060;15.064;2023-08-06T00:21:19;14.50;99.90
4795;DHT22;2411;47.060;15.064;2023-08-06T00:23:46;14.50;99.90
4795;DHT22;2411;47.060;15.064;2023-08-06T00:26:13;14.50;99.90
4795;DHT22;2411;47.060;15.064;2023-08-06T00:28:40;14.50;93.70
4795;DHT22;2411;47.060;15.064;2023-08-06T00:31:08;14.50;95.90
4795;DHT22;2411;47.060;15.064;2023-08-06T00:33:35;14.50;93.70
4795;DHT22;2411;47.060;15.064;2023-08-06T00:36:02;14.50;96.50
4795;DHT22;2411;47.060;15.064;2023-08-06T00:38:30;14.50;95.80
4795;DHT22;2411;47.060;15.064;2023-08-06T00:40:57;14.50;99.90
4795;DHT22;2411;47.060;15.064;2023-08-06T00:43:24;14.40;95.30
4795;DHT22;2411;47.060;15.064;2023-08-06T00:45:52;14.40;99.90
4795;DHT22;2411;47.060;15.064;2023-08-06T00:48:20;14.40;99.90
4795;DHT22;2411;47.060;15.064;2023-08-06T00:50:48;14.50;99.90
4795;DHT22;2411;47.060;15.064;2023-08-06T00:53:15;14.90;99.90
4795;DHT22;2411;47.060;15.064;2023-08-06T00:55:44;14.80;99.90
4795;DHT22;2411;47.060;15.064;2023-08-06T00:58:14;14.70;99.90
4795;DHT22;2411;47.060;15.064;2023-08-06T01:00:42;14.60;99.90
4795;DHT22;2411;47.060;15.064;2023-08-06T01:03:09;14.60;99.90
4795;DHT22;2411;47.060;15.064;2023-08-06T01:05:37;14.60;99.90
4795;DHT22;2411;47.060;15.064;2023-08-06T01:16:03;15.10;99.90
4795;DHT22;2411;47.060;15.064;2023-08-06T01:18:32;15.20;99.90
4795;DHT22;2411;47.060;15.064;2023-08-06T01:21:01;15.20;99.90
4795;DHT22;2411;47.060;15.064;2023-08-06T01:23:28;15.40;99.90
4795;DHT22;2411;47.060;15.064;2023-08-06T01:26:35;15.70;99.90
4795;DHT22;2411;47.060;15.064;2023-08-06T01:31:33;15.60;99.90
4795;DHT22;2411;47.060;15.064;2023-08-06T01:34:04;15.60;99.90
4795;DHT22;2411;47.060;15.064;2023-08-06T01:36:32;15.50;99.90
4795;DHT22;2411;47.060;15.064;2023-08-06T01:39:00;15.50;99.90
4795;DHT22;2411;47.060;15.064;2023-08-06T01:41:27;15.50;99.90
4795;DHT22;2411;47.060;15.064;2023-08-06T01:43:55;15.60;99.90
4795;DHT22;2411;47.060;15.064;2023-08-06T01:46:22;15.70;99.90
4795;DHT22;2411;47.060;15.064;2023-08-06T01:48:49;15.70;99.90
4795;DHT22;2411;47.060;15.064;2023-08-06T01:51:17;15.70;99.90
4795;DHT22;2411;47.060;15.064;2023-08-06T01:53:44;15.60;99.90
4795;DHT22;2411;47.060;15.064;2023-08-06T01:56:11;15.30;99.90
4795;DHT22;2411;47.060;15.064;2023-08-06T01:58:39;15.10;99.90
4795;DHT22;2411;47.060;15.064;2023-08-06T02:01:06;15.10;99.90
4795;DHT22;2411;47.060;15.064;2023-08-06T02:03:34;15.20;99.90
4795;DHT22;2411;47.060;15.064;2023-08-06T02:06:01;15.00;99.90
4795;DHT22;2411;47.060;15.064;2023-08-06T02:08:28;15.00;99.90
4795;DHT22;2411;47.060;15.064;2023-08-06T02:10:56;14.90;99.90
4795;DHT22;2411;47.060;15.064;2023-08-06T02:13:25;14.70;99.90
4795;DHT22;2411;47.060;15.064;2023-08-06T02:15:52;14.70;99.90
4795;DHT22;2411;47.060;15.064;2023-08-06T02:18:19;14.60;99.90
4795;DHT22;2411;47.060;15.064;2023-08-06T02:20:57;14.40;99.90
4795;DHT22;2411;47.060;15.064;2023-08-06T02:23:25;14.40;99.90
4795;DHT22;2411;47.060;15.064;2023-08-06T02:26:02;14.40;99.90
4795;DHT22;2411;47.060;15.064;2023-08-06T02:28:30;14.40;99.90
4795;DHT22;2411;47.060;15.064;2023-08-06T02:30:58;14.40;99.90
4795;DHT22;2411;47.060;15.064;2023-08-06T02:33:26;14.50;99.90
4795;DHT22;2411;47.060;15.064;2023-08-06T02:36:01;14.60;99.90
4795;DHT22;2411;47.060;15.064;2023-08-06T02:38:28;14.60;99.90
4795;DHT22;2411;47.060;15.064;2023-08-06T02:40:56;14.50;99.90
4795;DHT22;2411;47.060;15.064;2023-08-06T02:43:23;14.60;99.90
4795;DHT22;2411;47.060;15.064;2023-08-06T02:45:50;14.50;99.90
4795;DHT22;2411;47.060;15.064;2023-08-06T02:48:18;14.50;99.90
4795;DHT22;2411;47.060;15.064;2023-08-06T02:50:45;14.50;99.90
4795;DHT22;2411;47.060;15.064;2023-08-06T02:53:12;14.60;99.90
4795;DHT22;2411;47.060;15.064;2023-08-06T02:55:48;14.80;99.90
4795;DHT22;2411;47.060;15.064;2023-08-06T02:58:15;14.90;99.90
4795;DHT22;2411;47.060;15.064;2023-08-06T03:00:46;15.00;99.90
4795;DHT22;2411;47.060;15.064;2023-08-06T03:03:13;15.10;99.90
4795;DHT22;2411;47.060;15.064;2023-08-06T03:05:40;15.10;99.90
4795;DHT22;2411;47.060;15.064;2023-08-06T03:08:08;15.10;99.90
4795;DHT22;2411;47.060;15.064;2023-08-06T03:10:35;15.00;99.90
4795;DHT22;2411;47.060;15.064;2023-08-06T03:13:02;15.10;99.90
4795;DHT22;2411;47.060;15.064;2023-08-06T03:15:30;15.20;99.90
4795;DHT22;2411;47.060;15.064;2023-08-06T03:17:57;15.20;99.90
4795;DHT22;2411;47.060;15.064;2023-08-06T03:20:25;15.10;99.90
4795;DHT22;2411;47.060;15.064;2023-08-06T03:22:52;15.10;99.90
4795;DHT22;2411;47.060;15.064;2023-08-06T03:25:19;15.10;99.90
4795;DHT22;2411;47.060;15.064;2023-08-06T03:27:47;15.10;99.90
4795;DHT22;2411;47.060;15.064;2023-08-06T03:30:14;15.00;99.90
4795;DHT22;2411;47.060;15.064;2023-08-06T03:32:42;15.10;99.90
4795;DHT22;2411;47.060;15.064;2023-08-06T03:35:09;15.10;99.90
4795;DHT22;2411;47.060;15.064;2023-08-06T03:37:37;15.00;99.90
4795;DHT22;2411;47.060;15.064;2023-08-06T03:40:04;14.90;99.90
4795;DHT22;2411;47.060;15.064;2023-08-06T03:42:32;14.90;99.90
4795;DHT22;2411;47.060;15.064;2023-08-06T03:44:59;14.90;99.90
4795;DHT22;2411;47.060;15.064;2023-08-06T03:47:27;14.80;99.90
4795;DHT22;2411;47.060;15.064;2023-08-06T03:49:54;14.90;99.90
4795;DHT22;2411;47.060;15.064;2023-08-06T03:52:21;15.00;99.90
4795;DHT22;2411;47.060;15.064;2023-08-06T03:54:49;15.10;99.90
4795;DHT22;2411;47.060;15.064;2023-08-06T03:57:16;15.10;99.90
4795;DHT22;2411;47.060;15.064;2023-08-06T03:59:43;15.10;99.90
4795;DHT22;2411;47.060;15.064;2023-08-06T04:02:21;15.20;99.90
4795;DHT22;2411;47.060;15.064;2023-08-06T04:04:49;15.20;99.90
4795;DHT22;2411;47.060;15.064;2023-08-06T04:07:16;15.20;99.90
4795;DHT22;2411;47.060;15.064;2023-08-06T04:09:54;15.30;99.90
4795;DHT22;2411;47.060;15.064;2023-08-06T04:12:22;15.40;99.90
4795;DHT22;2411;47.060;15.064;2023-08-06T04:14:50;15.50;99.90
4795;DHT22;2411;47.060;15.064;2023-08-06T04:17:19;15.40;99.90
4795;DHT22;2411;47.060;15.064;2023-08-06T04:19:52;15.40;99.90
4795;DHT22;2411;47.060;15.064;2023-08-06T04:22:20;15.30;99.90
4795;DHT22;2411;47.060;15.064;2023-08-06T04:24:48;15.10;99.90
4795;DHT22;2411;47.060;15.064;2023-08-06T04:27:16;14.90;99.90
4795;DHT22;2411;47.060;15.064;2023-08-06T04:29:43;14.80;99.90
4795;DHT22;2411;47.060;15.064;2023-08-06T04:32:11;14.80;99.90
4795;DHT22;2411;47.060;15.064;2023-08-06T04:34:39;14.70;99.90
4795;DHT22;2411;47.060;15.064;2023-08-06T04:37:06;14.70;99.90
4795;DHT22;2411;47.060;15.064;2023-08-06T04:39:34;14.60;99.90
4795;DHT22;2411;47.060;15.064;2023-08-06T04:42:01;14.50;99.90
4795;DHT22;2411;47.060;15.064;2023-08-06T04:44:28;14.40;99.90
4795;DHT22;2411;47.060;15.064;2023-08-06T04:46:56;14.40;99.90
4795;DHT22;2411;47.060;15.064;2023-08-06T04:49:24;14.30;99.90
4795;DHT22;2411;47.060;15.064;2023-08-06T04:51:52;14.30;99.90
4795;DHT22;2411;47.060;15.064;2023-08-06T04:54:19;14.20;99.90
4795;DHT22;2411;47.060;15.064;2023-08-06T04:56:46;14.20;99.90
4795;DHT22;2411;47.060;15.064;2023-08-06T04:59:14;14.20;99.90
4795;DHT22;2411;47.060;15.064;2023-08-06T05:01:41;14.10;99.90
4795;DHT22;2411;47.060;15.064;2023-08-06T05:04:08;14.10;99.90
4795;DHT22;2411;47.060;15.064;2023-08-06T05:06:36;14.20;99.90
4795;DHT22;2411;47.060;15.064;2023-08-06T05:09:05;14.20;99.90
4795;DHT22;2411;47.060;15.064;2023-08-06T05:11:33;14.20;99.90
4795;DHT22;2411;47.060;15.064;2023-08-06T05:14:00;14.20;99.90
4795;DHT22;2411;47.060;15.064;2023-08-06T05:16:28;14.20;99.90
4795;DHT22;2411;47.060;15.064;2023-08-06T05:18:55;14.20;99.90
4795;DHT22;2411;47.060;15.064;2023-08-06T05:21:23;14.20;99.90
4795;DHT22;2411;47.060;15.064;2023-08-06T05:23:50;14.20;99.90
4795;DHT22;2411;47.060;15.064;2023-08-06T05:26:17;14.30;99.90
4795;DHT22;2411;47.060;15.064;2023-08-06T05:28:46;14.20;99.90
4795;DHT22;2411;47.060;15.064;2023-08-06T05:31:13;14.20;99.90
4795;DHT22;2411;47.060;15.064;2023-08-06T05:33:41;14.30;99.90
4795;DHT22;2411;47.060;15.064;2023-08-06T05:36:08;14.20;99.90
4795;DHT22;2411;47.060;15.064;2023-08-06T05:38:36;14.20;99.90
4795;DHT22;2411;47.060;15.064;2023-08-06T05:41:03;14.20;99.90
4795;DHT22;2411;47.060;15.064;2023-08-06T05:43:31;14.20;99.90
4795;DHT22;2411;47.060;15.064;2023-08-06T05:45:58;14.20;99.90
4795;DHT22;2411;47.060;15.064;2023-08-06T05:48:26;14.10;99.90
4795;DHT22;2411;47.060;15.064;2023-08-06T05:50:54;14.20;99.90
4795;DHT22;2411;47.060;15.064;2023-08-06T05:53:22;14.20;99.90
4795;DHT22;2411;47.060;15.064;2023-08-06T05:55:50;14.20;99.90
4795;DHT22;2411;47.060;15.064;2023-08-06T05:58:17;14.20;99.90
4795;DHT22;2411;47.060;15.064;2023-08-06T06:00:47;14.20;99.90
4795;DHT22;2411;47.060;15.064;2023-08-06T06:03:14;14.30;99.90
4795;DHT22;2411;47.060;15.064;2023-08-06T06:05:42;14.30;99.90
4795;DHT22;2411;47.060;15.064;2023-08-06T06:08:09;14.40;99.90
4795;DHT22;2411;47.060;15.064;2023-08-06T06:10:36;14.50;99.90
4795;DHT22;2411;47.060;15.064;2023-08-06T06:13:04;14.60;99.90
4795;DHT22;2411;47.060;15.064;2023-08-06T06:15:34;14.80;99.90
4795;DHT22;2411;47.060;15.064;2023-08-06T06:18:03;15.10;99.90
4795;DHT22;2411;47.060;15.064;2023-08-06T06:20:32;15.10;99.90
4795;DHT22;2411;47.060;15.064;2023-08-06T06:23:00;15.00;99.90
4795;DHT22;2411;47.060;15.064;2023-08-06T06:25:27;14.90;99.90
4795;DHT22;2411;47.060;15.064;2023-08-06T06:27:54;14.90;99.90
4795;DHT22;2411;47.060;15.064;2023-08-06T06:30:22;14.90;99.90
4795;DHT22;2411;47.060;15.064;2023-08-06T06:32:49;15.10;99.90
4795;DHT22;2411;47.060;15.064;2023-08-06T06:35:16;15.20;99.90
4795;DHT22;2411;47.060;15.064;2023-08-06T06:37:45;15.20;99.90
4795;DHT22;2411;47.060;15.064;2023-08-06T06:40:12;15.20;99.90
4795;DHT22;2411;47.060;15.064;2023-08-06T06:42:39;15.20;99.90
4795;DHT22;2411;47.060;15.064;2023-08-06T06:45:07;15.30;99.90
4795;DHT22;2411;47.060;15.064;2023-08-06T06:47:35;15.20;99.90
4795;DHT22;2411;47.060;15.064;2023-08-06T06:50:02;15.40;99.90
4795;DHT22;2411;47.060;15.064;2023-08-06T06:52:30;15.60;99.90
4795;DHT22;2411;47.060;15.064;2023-08-06T06:54:57;15.60;99.90
4795;DHT22;2411;47.060;15.064;2023-08-06T06:57:24;15.60;99.90
4795;DHT22;2411;47.060;15.064;2023-08-06T06:59:52;15.60;99.90
4795;DHT22;2411;47.060;15.064;2023-08-06T07:02:19;15.70;99.90
4795;DHT22;2411;47.060;15.064;2023-08-06T07:04:46;15.70;99.90
4795;DHT22;2411;47.060;15.064;2023-08-06T07:07:14;15.80;99.90
4795;DHT22;2411;47.060;15.064;2023-08-06T07:09:41;15.80;99.90
4795;DHT22;2411;47.060;15.064;2023-08-06T07:12:08;15.80;99.90
4795;DHT22;2411;47.060;15.064;2023-08-06T07:14:36;15.80;99.90
4795;DHT22;2411;47.060;15.064;2023-08-06T07:17:03;16.00;99.90
4795;DHT22;2411;47.060;15.064;2023-08-06T07:19:31;16.00;99.90
4795;DHT22;2411;47.060;15.064;2023-08-06T07:21:58;16.00;99.90
4795;DHT22;2411;47.060;15.064;2023-08-06T07:24:25;16.00;99.90
4795;DHT22;2411;47.060;15.064;2023-08-06T07:26:52;16.10;99.90
4795;DHT22;2411;47.060;15.064;2023-08-06T07:29:20;16.10;99.90
4795;DHT22;2411;47.060;15.064;2023-08-06T07:31:49;16.10;99.90
4795;DHT22;2411;47.060;15.064;2023-08-06T07:34:18;16.20;99.90
4795;DHT22;2411;47.060;15.064;2023-08-06T07:36:46;16.30;99.90
4795;DHT22;2411;47.060;15.064;2023-08-06T07:39:13;16.40;99.90
4795;DHT22;2411;47.060;15.064;2023-08-06T07:41:40;16.60;99.90
4795;DHT22;2411;47.060;15.064;2023-08-06T07:44:08;16.60;99.90
4795;DHT22;2411;47.060;15.064;2023-08-06T07:46:35;16.60;99.90
4795;DHT22;2411;47.060;15.064;2023-08-06T07:49:03;16.70;99.90
4795;DHT22;2411;47.060;15.064;2023-08-06T07:51:30;16.80;99.90
4795;DHT22;2411;47.060;15.064;2023-08-06T07:53:58;16.90;99.90
4795;DHT22;2411;47.060;15.064;2023-08-06T07:56:25;17.00;99.90
4795;DHT22;2411;47.060;15.064;2023-08-06T07:58:52;16.90;99.90
4795;DHT22;2411;47.060;15.064;2023-08-06T08:01:19;16.90;99.90
4795;DHT22;2411;47.060;15.064;2023-08-06T08:03:47;17.00;99.90
4795;DHT22;2411;47.060;15.064;2023-08-06T08:06:14;17.00;99.90
4795;DHT22;2411;47.060;15.064;2023-08-06T08:08:43;17.10;99.90
4795;DHT22;2411;47.060;15.064;2023-08-06T08:11:29;17.10;99.90
4795;DHT22;2411;47.060;15.064;2023-08-06T08:13:56;17.10;99.90
4795;DHT22;2411;47.060;15.064;2023-08-06T08:16:24;17.10;99.90
4795;DHT22;2411;47.060;15.064;2023-08-06T08:18:51;17.20;99.90
4795;DHT22;2411;47.060;15.064;2023-08-06T08:21:18;17.10;99.90
4795;DHT22;2411;47.060;15.064;2023-08-06T08:23:46;17.00;99.90
4795;DHT22;2411;47.060;15.064;2023-08-06T08:26:13;17.10;99.90
4795;DHT22;2411;47.060;15.064;2023-08-06T08:28:41;17.10;99.90
4795;DHT22;2411;47.060;15.064;2023-08-06T08:31:12;17.10;99.90
4795;DHT22;2411;47.060;15.064;2023-08-06T08:33:39;17.20;99.90
4795;DHT22;2411;47.060;15.064;2023-08-06T08:36:06;17.20;99.90
4795;DHT22;2411;47.060;15.064;2023-08-06T08:38:34;17.00;99.90
4795;DHT22;2411;47.060;15.064;2023-08-06T08:41:01;16.90;99.90
4795;DHT22;2411;47.060;15.064;2023-08-06T08:43:29;17.00;99.90
4795;DHT22;2411;47.060;15.064;2023-08-06T08:45:57;17.00;99.90
4795;DHT22;2411;47.060;15.064;2023-08-06T08:48:26;17.00;99.90
4795;DHT22;2411;47.060;15.064;2023-08-06T08:50:55;17.10;99.90
4795;DHT22;2411;47.060;15.064;2023-08-06T08:53:22;17.20;99.90
4795;DHT22;2411;47.060;15.064;2023-08-06T08:55:50;17.30;99.90
4795;DHT22;2411;47.060;15.064;2023-08-06T08:58:18;17.40;99.90
4795;DHT22;2411;47.060;15.064;2023-08-06T09:00:46;17.50;99.90
4795;DHT22;2411;47.060;15.064;2023-08-06T09:03:16;17.60;99.90
4795;DHT22;2411;47.060;15.064;2023-08-06T09:05:44;17.80;99.90
4795;DHT22;2411;47.060;15.064;2023-08-06T09:08:15;17.90;99.90
4795;DHT22;2411;47.060;15.064;2023-08-06T09:10:44;17.90;99.90
4795;DHT22;2411;47.060;15.064;2023-08-06T09:13:15;18.00;99.90
4795;DHT22;2411;47.060;15.064;2023-08-06T09:15:43;18.10;99.90
4795;DHT22;2411;47.060;15.064;2023-08-06T09:18:12;18.10;99.90
4795;DHT22;2411;47.060;15.064;2023-08-06T09:20:39;18.20;99.90
4795;DHT22;2411;47.060;15.064;2023-08-06T09:23:08;18.10;99.90
4795;DHT22;2411;47.060;15.064;2023-08-06T09:25:39;18.00;99.90
4795;DHT22;2411;47.060;15.064;2023-08-06T09:28:09;18.00;99.90
4795;DHT22;2411;47.060;15.064;2023-08-06T09:30:37;18.00;99.90
4795;DHT22;2411;47.060;15.064;2023-08-06T09:33:11;18.10;99.90
4795;DHT22;2411;47.060;15.064;2023-08-06T09:35:39;18.20;99.90
4795;DHT22;2411;47.060;15.064;2023-08-06T09:38:07;18.30;99.90
4795;DHT22;2411;47.060;15.064;2023-08-06T09:40:35;18.40;99.90
4795;DHT22;2411;47.060;15.064;2023-08-06T09:43:03;18.70;99.90
4795;DHT22;2411;47.060;15.064;2023-08-06T09:45:34;19.00;99.90
4795;DHT22;2411;47.060;15.064;2023-08-06T09:48:06;19.00;99.90
4795;DHT22;2411;47.060;15.064;2023-08-06T09:50:36;19.20;99.90
4795;DHT22;2411;47.060;15.064;2023-08-06T09:53:05;19.70;99.90
4795;DHT22;2411;47.060;15.064;2023-08-06T09:55:33;19.70;99.90
4795;DHT22;2411;47.060;15.064;2023-08-06T09:58:01;20.00;99.90
4795;DHT22;2411;47.060;15.064;2023-08-06T10:00:30;20.20;99.90
4795;DHT22;2411;47.060;15.064;2023-08-06T10:03:02;20.40;99.90
4795;DHT22;2411;47.060;15.064;2023-08-06T10:05:31;20.20;99.90
4795;DHT22;2411;47.060;15.064;2023-08-06T10:07:59;20.40;99.90
4795;DHT22;2411;47.060;15.064;2023-08-06T10:10:28;20.20;99.90
4795;DHT22;2411;47.060;15.064;2023-08-06T10:12:58;20.30;99.90
4795;DHT22;2411;47.060;15.064;2023-08-06T10:15:31;20.60;99.90
4795;DHT22;2411;47.060;15.064;2023-08-06T10:18:00;20.90;99.90
4795;DHT22;2411;47.060;15.064;2023-08-06T10:20:35;20.80;99.90
4795;DHT22;2411;47.060;15.064;2023-08-06T10:23:06;20.80;99.90
4795;DHT22;2411;47.060;15.064;2023-08-06T10:25:41;21.10;99.90
4795;DHT22;2411;47.060;15.064;2023-08-06T10:28:12;20.70;99.90
4795;DHT22;2411;47.060;15.064;2023-08-06T10:30:46;20.80;99.90
4795;DHT22;2411;47.060;15.064;2023-08-06T10:33:14;20.20;99.80
4795;DHT22;2411;47.060;15.064;2023-08-06T10:35:46;20.00;99.90
4795;DHT22;2411;47.060;15.064;2023-08-06T10:38:21;20.30;99.90
4795;DHT22;2411;47.060;15.064;2023-08-06T10:43:28;20.70;99.90
4795;DHT22;2411;47.060;15.064;2023-08-06T10:46:00;21.10;99.90
4795;DHT22;2411;47.060;15.064;2023-08-06T10:51:01;21.20;99.90
4795;DHT22;2411;47.060;15.064;2023-08-06T10:53:29;21.00;98.70
4795;DHT22;2411;47.060;15.064;2023-08-06T10:56:01;21.20;99.90
4795;DHT22;2411;47.060;15.064;2023-08-06T10:58:33;21.20;99.70
4795;DHT22;2411;47.060;15.064;2023-08-06T11:01:01;20.90;98.40
4795;DHT22;2411;47.060;15.064;2023-08-06T11:03:29;20.60;96.30
4795;DHT22;2411;47.060;15.064;2023-08-06T11:05:56;20.20;96.70
4795;DHT22;2411;47.060;15.064;2023-08-06T11:08:27;20.20;96.40
4795;DHT22;2411;47.060;15.064;2023-08-06T11:10:55;20.50;97.60
4795;DHT22;2411;47.060;15.064;2023-08-06T11:13:30;20.70;97.40
4795;DHT22;2411;47.060;15.064;2023-08-06T11:15:58;20.90;96.20
4795;DHT22;2411;47.060;15.064;2023-08-06T11:18:26;21.10;94.90
4795;DHT22;2411;47.060;15.064;2023-08-06T11:20:53;20.80;93.30
4795;DHT22;2411;47.060;15.064;2023-08-06T11:23:21;20.90;96.40
4795;DHT22;2411;47.060;15.064;2023-08-06T11:25:48;21.10;96.60
4795;DHT22;2411;47.060;15.064;2023-08-06T11:28:15;20.90;95.70
4795;DHT22;2411;47.060;15.064;2023-08-06T11:30:43;21.20;97.00
4795;DHT22;2411;47.060;15.064;2023-08-06T11:33:11;21.60;97.30
4795;DHT22;2411;47.060;15.064;2023-08-06T11:35:38;21.90;93.80
4795;DHT22;2411;47.060;15.064;2023-08-06T11:38:07;21.50;93.90
4795;DHT22;2411;47.060;15.064;2023-08-06T11:40:35;21.30;91.80
4795;DHT22;2411;47.060;15.064;2023-08-06T11:43:03;21.30;91.20
4795;DHT22;2411;47.060;15.064;2023-08-06T11:45:30;21.70;95.80
4795;DHT22;2411;47.060;15.064;2023-08-06T11:47:58;21.90;95.40
4795;DHT22;2411;47.060;15.064;2023-08-06T11:50:27;21.80;94.80
4795;DHT22;2411;47.060;15.064;2023-08-06T11:52:58;21.40;93.20
4795;DHT22;2411;47.060;15.064;2023-08-06T11:55:28;21.20;90.30
4795;DHT22;2411;47.060;15.064;2023-08-06T11:57:56;21.20;92.30
4795;DHT22;2411;47.060;15.064;2023-08-06T12:00:26;21.00;92.10
4795;DHT22;2411;47.060;15.064;2023-08-06T12:02:54;20.90;91.60
4795;DHT22;2411;47.060;15.064;2023-08-06T12:05:23;21.00;91.10
4795;DHT22;2411;47.060;15.064;2023-08-06T12:07:53;20.70;92.60
4795;DHT22;2411;47.060;15.064;2023-08-06T12:10:21;20.40;91.60
4795;DHT22;2411;47.060;15.064;2023-08-06T12:12:48;20.60;92.80
4795;DHT22;2411;47.060;15.064;2023-08-06T12:15:18;20.50;92.40
4795;DHT22;2411;47.060;15.064;2023-08-06T12:17:46;20.50;94.40
4795;DHT22;2411;47.060;15.064;2023-08-06T12:20:14;20.40;94.30
4795;DHT22;2411;47.060;15.064;2023-08-06T12:22:41;20.60;91.70
4795;DHT22;2411;47.060;15.064;2023-08-06T12:25:10;20.80;95.20
4795;DHT22;2411;47.060;15.064;2023-08-06T12:27:41;20.70;91.50
4795;DHT22;2411;47.060;15.064;2023-08-06T12:30:10;20.90;91.90
4795;DHT22;2411;47.060;15.064;2023-08-06T12:32:38;21.60;92.80
4795;DHT22;2411;47.060;15.064;2023-08-06T12:35:06;22.10;93.40
4795;DHT22;2411;47.060;15.064;2023-08-06T12:37:35;22.20;91.20
4795;DHT22;2411;47.060;15.064;2023-08-06T12:40:03;22.20;88.00
4795;DHT22;2411;47.060;15.064;2023-08-06T12:42:50;22.10;83.80
4795;DHT22;2411;47.060;15.064;2023-08-06T12:45:18;22.50;88.70
4795;DHT22;2411;47.060;15.064;2023-08-06T12:47:48;22.40;85.00
4795;DHT22;2411;47.060;15.064;2023-08-06T12:50:17;22.60;83.30
4795;DHT22;2411;47.060;15.064;2023-08-06T12:52:45;22.80;81.10
4795;DHT22;2411;47.060;15.064;2023-08-06T12:55:12;22.80;84.70
4795;DHT22;2411;47.060;15.064;2023-08-06T12:57:40;22.60;79.90
4795;DHT22;2411;47.060;15.064;2023-08-06T13:00:24;22.70;84.70
4795;DHT22;2411;47.060;15.064;2023-08-06T13:02:51;22.70;82.40
4795;DHT22;2411;47.060;15.064;2023-08-06T13:05:19;22.80;84.40
4795;DHT22;2411;47.060;15.064;2023-08-06T13:07:47;23.10;83.60
4795;DHT22;2411;47.060;15.064;2023-08-06T13:10:14;23.00;84.60
4795;DHT22;2411;47.060;15.064;2023-08-06T13:12:41;22.70;84.40
4795;DHT22;2411;47.060;15.064;2023-08-06T13:15:09;22.50;81.90
4795;DHT22;2411;47.060;15.064;2023-08-06T13:17:37;22.70;80.90
4795;DHT22;2411;47.060;15.064;2023-08-06T13:20:05;23.00;78.70
4795;DHT22;2411;47.060;15.064;2023-08-06T13:22:33;22.90;81.80
4795;DHT22;2411;47.060;15.064;2023-08-06T13:25:00;22.80;81.80
4795;DHT22;2411;47.060;15.064;2023-08-06T13:27:28;22.00;77.50
4795;DHT22;2411;47.060;15.064;2023-08-06T13:29:55;21.80;80.40
4795;DHT22;2411;47.060;15.064;2023-08-06T13:32:22;21.40;75.00
4795;DHT22;2411;47.060;15.064;2023-08-06T13:34:50;21.30;77.30
4795;DHT22;2411;47.060;15.064;2023-08-06T13:37:17;21.30;74.40
4795;DHT22;2411;47.060;15.064;2023-08-06T13:39:44;21.50;80.00
4795;DHT22;2411;47.060;15.064;2023-08-06T13:42:12;21.30;78.60
4795;DHT22;2411;47.060;15.064;2023-08-06T13:44:39;21.50;83.40
4795;DHT22;2411;47.060;15.064;2023-08-06T13:47:06;21.30;79.70
4795;DHT22;2411;47.060;15.064;2023-08-06T13:49:34;21.50;81.00
4795;DHT22;2411;47.060;15.064;2023-08-06T13:52:01;21.60;79.00
4795;DHT22;2411;47.060;15.064;2023-08-06T13:54:47;21.50;80.90
4795;DHT22;2411;47.060;15.064;2023-08-06T13:57:15;21.60;82.10
4795;DHT22;2411;47.060;15.064;2023-08-06T13:59:44;22.00;79.40
4795;DHT22;2411;47.060;15.064;2023-08-06T14:02:12;22.30;80.30
4795;DHT22;2411;47.060;15.064;2023-08-06T14:04:39;22.00;84.10
4795;DHT22;2411;47.060;15.064;2023-08-06T14:07:07;21.80;83.30
4795;DHT22;2411;47.060;15.064;2023-08-06T14:09:35;21.50;81.90
4795;DHT22;2411;47.060;15.064;2023-08-06T14:12:02;21.40;80.90
4795;DHT22;2411;47.060;15.064;2023-08-06T14:14:30;21.40;83.30
4795;DHT22;2411;47.060;15.064;2023-08-06T14:16:58;21.20;78.20
4795;DHT22;2411;47.060;15.064;2023-08-06T14:19:26;21.10;82.80
4795;DHT22;2411;47.060;15.064;2023-08-06T14:21:53;21.20;84.10
4795;DHT22;2411;47.060;15.064;2023-08-06T14:24:22;21.30;85.00
4795;DHT22;2411;47.060;15.064;2023-08-06T14:26:49;21.50;86.60
4795;DHT22;2411;47.060;15.064;2023-08-06T14:29:17;21.50;78.00
4795;DHT22;2411;47.060;15.064;2023-08-06T14:31:44;21.90;82.10
4795;DHT22;2411;47.060;15.064;2023-08-06T14:34:11;22.10;76.00
4795;DHT22;2411;47.060;15.064;2023-08-06T14:36:39;22.00;75.80
4795;DHT22;2411;47.060;15.064;2023-08-06T14:39:06;22.00;77.90
4795;DHT22;2411;47.060;15.064;2023-08-06T14:41:34;22.10;80.90
4795;DHT22;2411;47.060;15.064;2023-08-06T14:44:01;22.40;79.90
4795;DHT22;2411;47.060;15.064;2023-08-06T14:46:28;22.50;78.10
4795;DHT22;2411;47.060;15.064;2023-08-06T14:48:56;22.70;78.50
4795;DHT22;2411;47.060;15.064;2023-08-06T14:51:23;22.90;84.20
4795;DHT22;2411;47.060;15.064;2023-08-06T14:53:51;23.20;81.60
4795;DHT22;2411;47.060;15.064;2023-08-06T14:56:18;23.30;81.70
4795;DHT22;2411;47.060;15.064;2023-08-06T14:58:46;23.40;84.60
4795;DHT22;2411;47.060;15.064;2023-08-06T15:01:13;23.50;82.00
4795;DHT22;2411;47.060;15.064;2023-08-06T15:03:40;23.80;87.80
4795;DHT22;2411;47.060;15.064;2023-08-06T15:06:08;23.80;79.80
4795;DHT22;2411;47.060;15.064;2023-08-06T15:08:35;23.10;74.20
4795;DHT22;2411;47.060;15.064;2023-08-06T15:11:04;22.50;72.40
4795;DHT22;2411;47.060;15.064;2023-08-06T15:13:31;22.40;72.90
4795;DHT22;2411;47.060;15.064;2023-08-06T15:15:58;22.70;78.10
4795;DHT22;2411;47.060;15.064;2023-08-06T15:18:26;22.90;74.30
4795;DHT22;2411;47.060;15.064;2023-08-06T15:20:53;23.30;76.30
4795;DHT22;2411;47.060;15.064;2023-08-06T15:23:21;23.40;83.40
4795;DHT22;2411;47.060;15.064;2023-08-06T15:25:49;23.40;82.80
4795;DHT22;2411;47.060;15.064;2023-08-06T15:28:17;23.00;84.60
4795;DHT22;2411;47.060;15.064;2023-08-06T15:30:51;22.70;88.20
4795;DHT22;2411;47.060;15.064;2023-08-06T15:33:19;22.70;91.20
4795;DHT22;2411;47.060;15.064;2023-08-06T15:35:47;22.50;87.20
4795;DHT22;2411;47.060;15.064;2023-08-06T15:38:14;22.30;91.20
4795;DHT22;2411;47.060;15.064;2023-08-06T15:40:42;21.90;87.10
4795;DHT22;2411;47.060;15.064;2023-08-06T15:43:12;21.90;86.80
4795;DHT22;2411;47.060;15.064;2023-08-06T15:45:40;22.30;87.80
4795;DHT22;2411;47.060;15.064;2023-08-06T15:48:07;23.00;91.40
4795;DHT22;2411;47.060;15.064;2023-08-06T15:50:39;23.30;82.00
4795;DHT22;2411;47.060;15.064;2023-08-06T15:53:06;23.70;83.10
4795;DHT22;2411;47.060;15.064;2023-08-06T15:55:34;24.00;85.20
4795;DHT22;2411;47.060;15.064;2023-08-06T15:58:05;24.30;84.80
4795;DHT22;2411;47.060;15.064;2023-08-06T16:00:33;24.50;87.30
4795;DHT22;2411;47.060;15.064;2023-08-06T16:03:01;24.40;75.10
4795;DHT22;2411;47.060;15.064;2023-08-06T16:05:29;24.50;76.80
4795;DHT22;2411;47.060;15.064;2023-08-06T16:07:56;24.30;73.90